createdAt,value
2018-04-10T00:02:19.960Z,100710.66
2018-04-10T00:05:23.260Z,100713.95
2018-04-10T00:08:26.576Z,100710.30
2018-04-10T00:11:29.881Z,100713.67
2018-04-10T00:14:33.968Z,100707.42
2018-04-10T00:17:37.288Z,100711.73
2018-04-10T00:20:40.606Z,100705.65
2018-04-10T00:23:43.932Z,100696.08
2018-04-10T00:26:47.248Z,100690.94
2018-04-10T00:29:50.560Z,100692.13
2018-04-10T00:32:53.861Z,100689.87
2018-04-10T00:35:57.184Z,100691.81
2018-04-10T00:39:01.289Z,100688.80
2018-04-10T00:42:05.357Z,100699.41
2018-04-10T00:45:08.680Z,100694.38
2018-04-10T00:48:11.984Z,100690.23
2018-04-10T00:51:16.077Z,100697.45
2018-04-10T00:54:19.384Z,100709.62
2018-04-10T00:57:22.712Z,100718.84
2018-04-10T01:00:26.781Z,100714.27
2018-04-10T01:03:30.101Z,100721.08
2018-04-10T01:06:33.421Z,100718.87
2018-04-10T01:09:37.484Z,100712.05
2018-04-10T01:12:40.800Z,100718.75
2018-04-10T01:15:44.107Z,100716.59
2018-04-10T01:18:47.415Z,100711.25
2018-04-10T01:21:51.497Z,100717.39
2018-04-10T01:24:54.793Z,100717.95
2018-04-10T01:27:58.108Z,100712.30
2018-04-10T01:31:01.430Z,100699.53
2018-04-10T01:34:05.512Z,100696.03
2018-04-10T01:37:08.832Z,100703.70
2018-04-10T01:40:12.895Z,100703.93
2018-04-10T01:43:16.212Z,100709.80
2018-04-10T01:46:19.511Z,100708.77
2018-04-10T01:49:22.834Z,100700.52
2018-04-10T01:52:26.898Z,100707.63
2018-04-10T01:55:30.223Z,100708.28
2018-04-10T01:58:33.512Z,100711.00
2018-04-10T02:01:36.832Z,100708.18
2018-04-10T02:04:40.901Z,100704.26
2018-04-10T02:07:44.224Z,100709.19
2018-04-10T02:10:47.516Z,100703.44
2018-04-10T02:13:50.833Z,100701.14
2018-04-10T02:16:54.932Z,100702.20
2018-04-10T02:19:58.241Z,100693.08
2018-04-10T02:23:01.557Z,100693.20
2018-04-10T02:26:05.636Z,100698.62
2018-04-10T02:29:08.958Z,100694.13
2018-04-10T02:32:13.024Z,100697.06
2018-04-10T02:35:16.336Z,100715.11
2018-04-10T02:38:19.644Z,100708.03
2018-04-10T02:41:22.973Z,100715.53
2018-04-10T02:44:27.038Z,100716.48
2018-04-10T02:47:30.364Z,100721.91
2018-04-10T02:50:33.669Z,100720.23
2018-04-10T02:53:37.764Z,100717.58
2018-04-10T02:56:41.066Z,100715.29
2018-04-10T02:59:44.380Z,100705.80
2018-04-10T03:02:48.448Z,100708.80
2018-04-10T03:05:51.771Z,100721.95
2018-04-10T03:08:55.097Z,100711.45
2018-04-10T03:11:59.212Z,100708.55
2018-04-10T03:15:02.518Z,100692.89
2018-04-10T03:18:05.840Z,100690.55
2018-04-10T03:21:09.174Z,100684.96
2018-04-10T03:24:12.480Z,100684.22
2018-04-10T03:27:16.582Z,100699.05
2018-04-10T03:30:19.884Z,100701.55
2018-04-10T03:33:23.221Z,100703.10
2018-04-10T03:36:26.527Z,100702.39
2018-04-10T03:39:29.848Z,100703.60
2018-04-10T03:42:33.144Z,100708.51
2018-04-10T03:45:36.455Z,100704.52
2018-04-10T03:48:39.777Z,100703.34
2018-04-10T03:51:43.850Z,100718.66
2018-04-10T03:54:47.168Z,100724.29
2018-04-10T03:57:50.469Z,100722.05
2018-04-10T04:00:53.784Z,100713.73
2018-04-10T04:03:57.863Z,100718.00
2018-04-10T04:07:01.177Z,100715.30
2018-04-10T04:10:04.498Z,100715.39
2018-04-10T04:13:08.580Z,100717.73
2018-04-10T04:16:29.660Z,100713.47
2018-04-10T04:19:50.436Z,100716.05
2018-04-10T04:22:53.773Z,100715.34
2018-04-10T04:25:57.912Z,100715.78
2018-04-10T04:29:01.234Z,100726.32
2018-04-10T04:32:05.317Z,100733.31
2018-04-10T04:35:08.632Z,100728.19
2018-04-10T04:38:11.944Z,100736.62
2018-04-10T04:41:16.003Z,100737.61
2018-04-10T04:44:19.324Z,100723.95
2018-04-10T04:47:22.648Z,100722.52
2018-04-10T04:50:26.753Z,100725.96
2018-04-10T04:53:30.840Z,100732.05
2018-04-10T04:56:34.160Z,100731.76
2018-04-10T04:59:37.477Z,100729.77
2018-04-10T05:02:41.560Z,100733.75
2018-04-10T05:05:44.866Z,100729.56
2018-04-10T05:08:48.187Z,100730.97
2018-04-10T05:11:51.488Z,100738.47
2018-04-10T05:14:54.808Z,100729.92
2018-04-10T05:17:58.111Z,100737.55
2018-04-10T05:21:01.425Z,100730.00
2018-04-10T05:24:04.749Z,100729.30
2018-04-10T05:27:08.812Z,100740.68
2018-04-10T05:30:12.128Z,100744.03
2018-04-10T05:33:15.429Z,100741.70
2018-04-10T05:36:18.768Z,100739.11
2018-04-10T05:39:22.836Z,100737.34
2018-04-10T05:42:26.165Z,100735.34
2018-04-10T05:45:30.229Z,100755.31
2018-04-10T05:48:33.547Z,100745.94
2018-04-10T05:51:36.848Z,100752.16
2018-04-10T05:54:40.177Z,100747.58
2018-04-10T05:57:44.244Z,100749.00
2018-04-10T06:00:47.617Z,100752.95
2018-04-10T06:03:50.912Z,100757.38
2018-04-10T06:06:54.233Z,100747.36
2018-04-10T06:09:57.557Z,100753.66
2018-04-10T06:13:00.865Z,100757.80
2018-04-10T06:16:04.969Z,100761.50
2018-04-10T06:19:08.272Z,100762.94
2018-04-10T06:22:11.590Z,100763.78
2018-04-10T06:25:14.923Z,100769.80
2018-04-10T06:28:18.221Z,100777.45
2018-04-10T06:31:21.539Z,100774.84
2018-04-10T06:34:24.836Z,100776.91
2018-04-10T06:37:28.194Z,100778.94
2018-04-10T06:40:32.245Z,100771.41
2018-04-10T06:43:35.569Z,100780.34
2018-04-10T06:46:39.680Z,100783.49
2018-04-10T06:49:42.980Z,100789.00
2018-04-10T06:52:47.061Z,100795.09
2018-04-10T06:55:50.361Z,100794.58
2018-04-10T06:58:53.685Z,100798.18
2018-04-10T07:01:57.780Z,100797.05
2018-04-10T07:05:01.080Z,100801.42
2018-04-10T07:08:04.400Z,100800.77
2018-04-10T07:11:08.491Z,100806.59
2018-04-10T07:14:11.817Z,100812.91
2018-04-10T07:17:15.885Z,100818.38
2018-04-10T07:20:19.214Z,100827.98
2018-04-10T07:23:22.533Z,100817.53
2018-04-10T07:26:25.856Z,100825.20
2018-04-10T07:29:29.169Z,100839.38
2018-04-10T07:32:32.506Z,100835.06
2018-04-10T07:35:36.581Z,100826.94
2018-04-10T07:38:39.929Z,100833.39
2018-04-10T07:41:43.235Z,100838.12
2018-04-10T07:44:46.580Z,100828.41
2018-04-10T07:47:49.890Z,100840.13
2018-04-10T07:50:53.216Z,100837.08
2018-04-10T07:53:57.294Z,100839.02
2018-04-10T07:57:00.632Z,100841.73
2018-04-10T08:00:03.949Z,100841.44
2018-04-10T08:03:07.272Z,100850.89
2018-04-10T08:06:10.601Z,100849.70
2018-04-10T08:09:14.681Z,100850.67
2018-04-10T08:12:18.008Z,100858.92
2018-04-10T08:15:21.336Z,100858.80
2018-04-10T08:18:24.660Z,100860.38
2018-04-10T08:21:27.984Z,100865.33
2018-04-10T08:24:31.294Z,100868.69
2018-04-10T08:27:34.623Z,100871.80
2018-04-10T08:30:37.932Z,100870.78
2018-04-10T08:33:41.265Z,100873.46
2018-04-10T08:36:44.577Z,100879.36
2018-04-10T08:39:47.909Z,100888.49
2018-04-10T08:42:51.221Z,100898.84
2018-04-10T08:45:54.552Z,100886.13
2018-04-10T08:48:57.864Z,100886.72
2018-04-10T08:52:01.188Z,100898.67
2018-04-10T08:55:04.518Z,100885.44
2018-04-10T08:58:07.849Z,100884.94
2018-04-10T09:01:11.177Z,100888.27
2018-04-10T09:04:14.493Z,100889.87
2018-04-10T09:07:17.837Z,100893.02
2018-04-10T09:10:21.159Z,100891.94
2018-04-10T09:13:24.488Z,100885.17
2018-04-10T09:16:27.801Z,100894.47
2018-04-10T09:19:31.138Z,100889.62
2018-04-10T09:22:35.212Z,100896.60
2018-04-10T09:25:38.553Z,100897.95
2018-04-10T09:28:42.624Z,100909.59
2018-04-10T09:31:45.953Z,100915.25
2018-04-10T09:34:49.256Z,100917.52
2018-04-10T09:37:53.345Z,100929.84
2018-04-10T09:40:56.656Z,100932.16
2018-04-10T09:43:59.984Z,100935.56
2018-04-10T09:47:03.312Z,100937.67
2018-04-10T09:50:06.640Z,100943.81
2018-04-10T09:53:09.969Z,100966.16
2018-04-10T09:56:14.033Z,100967.13
2018-04-10T09:59:17.344Z,100961.66
2018-04-10T10:02:21.610Z,100959.25
2018-04-10T10:05:24.940Z,100975.05
2018-04-10T10:08:28.263Z,100971.80
2018-04-10T10:11:31.560Z,100974.06
2018-04-10T10:14:34.878Z,100987.61
2018-04-10T10:17:38.957Z,100993.48
2018-04-10T10:20:42.270Z,100996.63
2018-04-10T10:23:45.586Z,101000.67
2018-04-10T10:26:49.645Z,101003.61
2018-04-10T10:29:53.728Z,101015.52
2018-04-10T10:32:57.073Z,101012.09
2018-04-10T10:36:00.371Z,101013.13
2018-04-10T10:39:03.677Z,101014.61
2018-04-10T10:42:07.001Z,101017.02
2018-04-10T10:45:11.065Z,101034.39
2018-04-10T10:48:14.393Z,101030.45
2018-04-10T10:51:17.688Z,101032.75
2018-04-10T10:54:21.005Z,101036.52
2018-04-10T10:57:25.081Z,101042.06
2018-04-10T11:00:28.392Z,101046.66
2018-04-10T11:03:31.718Z,101055.10
2018-04-10T11:06:35.012Z,101051.33
2018-04-10T11:09:39.141Z,101047.37
2018-04-10T11:12:42.436Z,101048.33
2018-04-10T11:15:45.732Z,101068.05
2018-04-10T11:18:49.053Z,101072.20
2018-04-10T11:21:52.368Z,101067.41
2018-04-10T11:24:55.733Z,101075.45
2018-04-10T11:27:59.028Z,101069.48
2018-04-10T11:31:02.352Z,101075.22
2018-04-10T11:34:05.672Z,101070.94
2018-04-10T11:37:08.974Z,101086.40
2018-04-10T11:40:12.293Z,101089.92
2018-04-10T11:43:16.381Z,101085.25
2018-04-10T11:46:19.724Z,101078.14
2018-04-10T11:49:23.024Z,101081.18
2018-04-10T11:52:26.345Z,101074.91
2018-04-10T11:55:29.656Z,101074.80
2018-04-10T11:58:32.976Z,101064.58
2018-04-10T12:01:37.051Z,101074.37
2018-04-10T12:04:40.372Z,101090.86
2018-04-10T12:07:43.679Z,101064.66
2018-04-10T12:10:46.997Z,101072.29
2018-04-10T12:13:51.085Z,101071.87
2018-04-10T12:16:54.396Z,101076.27
2018-04-10T12:19:58.480Z,101082.09
2018-04-10T12:23:01.797Z,101075.73
2018-04-10T12:26:05.119Z,101075.42
2018-04-10T12:29:08.421Z,101074.07
2018-04-10T12:32:11.756Z,101069.16
2018-04-10T12:35:15.056Z,101073.44
2018-04-10T12:38:18.392Z,101055.83
2018-04-10T12:41:21.688Z,101070.86
2018-04-10T12:44:25.768Z,101073.87
2018-04-10T12:47:29.068Z,101078.37
2018-04-10T12:50:32.392Z,101086.70
2018-04-10T12:53:36.460Z,101073.87
2018-04-10T12:56:39.788Z,101074.60
2018-04-10T12:59:43.085Z,101075.45
2018-04-10T13:02:46.409Z,101065.84
2018-04-10T13:05:49.708Z,101064.06
2018-04-10T13:08:53.028Z,101061.66
2018-04-10T13:11:56.324Z,101064.06
2018-04-10T13:14:59.664Z,101069.27
2018-04-10T13:18:02.964Z,101072.09
2018-04-10T13:21:06.301Z,101071.56
2018-04-10T13:24:09.606Z,101067.80
2018-04-10T13:27:12.934Z,101075.83
2018-04-10T13:30:16.247Z,101080.95
2018-04-10T13:33:20.187Z,101076.64
2018-04-10T13:36:24.262Z,101082.18
2018-04-10T13:39:27.588Z,101082.47
2018-04-10T13:42:31.657Z,101091.75
2018-04-10T13:45:34.980Z,101086.44
2018-04-10T13:48:38.305Z,101090.04
2018-04-10T13:51:42.388Z,101097.00
2018-04-10T13:54:45.708Z,101088.26
2018-04-10T13:57:49.049Z,101111.58
2018-04-10T14:00:52.397Z,101101.76
2018-04-10T14:03:56.464Z,101094.51
2018-04-10T14:06:59.784Z,101110.64
2018-04-10T14:10:03.085Z,101090.64
2018-04-10T14:13:06.410Z,101087.34
2018-04-10T14:16:10.480Z,101085.69
2018-04-10T14:19:13.802Z,101089.86
2018-04-10T14:22:17.130Z,101090.44
2018-04-10T14:25:20.449Z,101099.92
2018-04-10T14:28:23.746Z,101095.10
2018-04-10T14:31:27.065Z,101106.68
2018-04-10T14:34:30.396Z,101093.83
2018-04-10T14:37:34.460Z,101100.56
2018-04-10T14:40:37.777Z,101100.44
2018-04-10T14:43:41.077Z,101089.32
2018-04-10T14:46:44.392Z,101084.63
2018-04-10T14:49:47.699Z,101088.40
2018-04-10T14:52:51.784Z,101084.19
2018-04-10T14:55:55.104Z,101078.88
2018-04-10T14:58:58.424Z,101070.20
2018-04-10T15:02:01.725Z,101068.22
2018-04-10T15:05:05.047Z,101072.08
2018-04-10T15:08:08.377Z,101061.31
2018-04-10T15:11:11.686Z,101068.50
2018-04-10T15:14:15.773Z,101076.20
2018-04-10T15:17:19.072Z,101080.11
2018-04-10T15:20:22.388Z,101089.92
2018-04-10T15:23:25.705Z,101079.56
2018-04-10T15:26:29.801Z,101077.08
2018-04-10T15:29:33.141Z,101076.27
2018-04-10T15:32:36.449Z,101074.98
2018-04-10T15:35:39.781Z,101054.69
2018-04-10T15:38:43.082Z,101081.05
2018-04-10T15:41:46.412Z,101085.75
2018-04-10T15:44:49.716Z,101083.79
2018-04-10T15:47:53.758Z,101076.78
2018-04-10T15:50:57.060Z,101068.53
2018-04-10T15:54:00.391Z,101078.88
2018-04-10T15:57:04.462Z,101088.63
2018-04-10T16:00:07.788Z,101089.30
2018-04-10T16:03:11.128Z,101093.84
2018-04-10T16:06:14.433Z,101093.66
2018-04-10T16:09:17.773Z,101094.50
2018-04-10T16:12:21.076Z,101103.38
2018-04-10T16:15:24.398Z,101100.78
2018-04-10T16:18:27.700Z,101104.02
2018-04-10T16:21:31.021Z,101115.23
2018-04-10T16:24:34.345Z,101111.53
2018-04-10T16:27:37.685Z,101109.41
2018-04-10T16:30:41.760Z,101104.80
2018-04-10T16:33:45.076Z,101110.60
2018-04-10T16:36:49.304Z,101109.41
2018-04-10T16:39:52.679Z,101116.03
2018-04-10T16:42:56.809Z,101119.94
2018-04-10T16:46:01.082Z,101120.88
2018-04-10T16:49:04.418Z,101130.04
2018-04-10T16:52:07.753Z,101135.12
2018-04-10T16:55:11.073Z,101121.87
2018-04-10T16:58:14.389Z,101126.86
2018-04-10T17:01:17.684Z,101129.16
2018-04-10T17:04:20.997Z,101119.56
2018-04-10T17:07:24.297Z,101121.31
2018-04-10T17:10:27.609Z,101119.26
2018-04-10T17:13:32.641Z,101118.84
2018-04-10T17:16:36.863Z,101124.02
2018-04-10T17:19:41.174Z,101133.42
2018-04-10T17:22:44.483Z,101128.72
2018-04-10T17:25:47.809Z,101120.41
2018-04-10T17:28:51.169Z,101116.20
2018-04-10T17:31:56.115Z,101116.62
2018-04-10T17:35:00.185Z,101129.20
2018-04-10T17:38:03.505Z,101128.95
2018-04-10T17:41:06.837Z,101124.55
2018-04-10T17:44:10.149Z,101136.92
2018-04-10T17:47:13.481Z,101133.94
2018-04-10T17:50:16.808Z,101140.52
2018-04-10T17:53:20.892Z,101149.75
2018-04-10T17:56:24.196Z,101145.28
2018-04-10T17:59:27.530Z,101148.94
2018-04-10T18:02:30.832Z,101152.00
2018-04-10T18:05:34.148Z,101162.86
2018-04-10T18:08:37.455Z,101158.81
2018-04-10T18:11:40.777Z,101171.47
2018-04-10T18:14:44.076Z,101178.70
2018-04-10T18:17:47.392Z,101157.97
2018-04-10T18:20:50.719Z,101170.09
2018-04-10T18:23:54.028Z,101173.27
2018-04-10T18:26:57.348Z,101172.10
2018-04-10T18:30:00.689Z,101179.56
2018-04-10T18:33:04.777Z,101183.72
2018-04-10T18:36:08.134Z,101193.22
2018-04-10T18:39:12.181Z,101195.30
2018-04-10T18:42:15.484Z,101191.48
2018-04-10T18:45:18.800Z,101198.34
2018-04-10T18:48:22.164Z,101190.74
2018-04-10T18:51:25.464Z,101208.30
2018-04-10T18:54:28.797Z,101207.88
2018-04-10T18:57:32.100Z,101208.03
2018-04-10T19:00:35.416Z,101225.73
2018-04-10T19:03:38.720Z,101220.28
2018-04-10T19:06:42.045Z,101228.34
2018-04-10T19:09:45.352Z,101232.00
2018-04-10T19:12:48.680Z,101216.87
2018-04-10T19:15:52.017Z,101227.33
2018-04-10T19:18:55.320Z,101218.48
2018-04-10T19:21:58.657Z,101221.25
2018-04-10T19:25:02.729Z,101229.91
2018-04-10T19:28:06.058Z,101225.54
2018-04-10T19:31:10.137Z,101231.09
2018-04-10T19:34:13.473Z,101230.61
2018-04-10T19:37:17.563Z,101222.94
2018-04-10T19:40:20.894Z,101218.66
2018-04-10T19:43:24.229Z,101230.48
2018-04-10T19:46:27.545Z,101224.08
2018-04-10T19:49:30.865Z,101225.48
2018-04-10T19:52:34.192Z,101230.80
2018-04-10T19:55:37.533Z,101235.06
2018-04-10T19:58:40.833Z,101218.48
2018-04-10T20:01:44.156Z,101229.66
2018-04-10T20:04:48.296Z,101242.91
2018-04-10T20:07:51.568Z,101240.67
2018-04-10T20:10:54.900Z,101247.90
2018-04-10T20:13:58.210Z,101243.42
2018-04-10T20:17:01.548Z,101243.14
2018-04-10T20:20:04.853Z,101249.59
2018-04-10T20:23:08.210Z,101246.44
2018-04-10T20:26:11.521Z,101252.08
2018-04-10T20:29:14.841Z,101258.30
2018-04-10T20:32:18.953Z,101259.14
2018-04-10T20:35:22.289Z,101252.11
2018-04-10T20:38:25.585Z,101256.45
2018-04-10T20:41:28.904Z,101251.81
2018-04-10T20:44:32.217Z,101256.29
2018-04-10T20:47:35.534Z,101260.16
2018-04-10T20:50:38.868Z,101271.08
2018-04-10T20:53:42.176Z,101268.01
2018-04-10T20:56:45.505Z,101247.16
2018-04-10T20:59:48.824Z,101266.29
2018-04-10T21:02:52.153Z,101264.83
2018-04-10T21:05:55.469Z,101259.73
2018-04-10T21:08:58.808Z,101267.53
2018-04-10T21:12:02.117Z,101265.62
2018-04-10T21:15:05.473Z,101260.84
2018-04-10T21:18:08.805Z,101255.13
2018-04-10T21:21:12.126Z,101263.38
2018-04-10T21:24:16.235Z,101271.94
2018-04-10T21:27:20.333Z,101268.69
2018-04-10T21:30:23.710Z,101264.41
2018-04-10T21:33:27.005Z,101261.94
2018-04-10T21:36:30.329Z,101260.85
2018-04-10T21:39:33.645Z,101270.16
2018-04-10T21:42:42.456Z,101260.80
2018-04-10T21:45:46.545Z,101276.19
2018-04-10T21:48:49.881Z,101268.20
2018-04-10T21:51:53.199Z,101270.84
2018-04-10T21:54:56.545Z,101270.89
2018-04-10T21:57:59.919Z,101263.20
2018-04-10T22:01:03.225Z,101249.89
2018-04-10T22:04:06.555Z,101260.55
2018-04-10T22:07:10.691Z,101265.44
2018-04-10T22:10:14.017Z,101268.45
2018-04-10T22:13:18.861Z,101265.03
2018-04-10T22:16:22.221Z,101263.25
2018-04-10T22:19:25.554Z,101266.73
2018-04-10T22:22:28.899Z,101272.87
2018-04-10T22:25:32.209Z,101279.35
2018-04-10T22:28:35.545Z,101273.53
2018-04-10T22:31:38.905Z,101276.36
2018-04-10T22:34:42.203Z,101267.17
2018-04-10T22:37:45.529Z,101269.35
2018-04-10T22:40:48.853Z,101269.35
2018-04-10T22:43:52.181Z,101270.03
2018-04-10T22:46:55.501Z,101271.51
2018-04-10T22:49:58.867Z,101267.78
2018-04-10T22:53:02.172Z,101272.90
2018-04-10T22:56:05.521Z,101266.66
2018-04-10T22:59:09.585Z,101285.16
2018-04-10T23:02:12.912Z,101269.90
2018-04-10T23:05:16.236Z,101280.11
2018-04-10T23:08:19.577Z,101285.32
2018-04-10T23:11:22.893Z,101285.86
2018-04-10T23:14:26.234Z,101275.47
2018-04-10T23:17:29.542Z,101272.03
2018-04-10T23:20:33.652Z,101283.98
2018-04-10T23:23:36.981Z,101292.36
2018-04-10T23:26:40.321Z,101292.36
2018-04-10T23:29:43.625Z,101294.28
2018-04-10T23:32:46.969Z,101290.17
2018-04-10T23:35:50.297Z,101287.34
2018-04-10T23:38:53.622Z,101285.94
2018-04-10T23:41:56.957Z,101295.88
2018-04-10T23:45:01.065Z,101304.13
2018-04-10T23:48:04.378Z,101291.26
2018-04-10T23:51:07.707Z,101304.81
2018-04-10T23:54:11.056Z,101298.31
2018-04-10T23:57:14.376Z,101303.78
